Kewaunee, WI (54216)

8:14 AM CST on December 27, 2014 (GMT -0600)
Kewaunee on Lake Michigan | Change Station
CLOSE
Current Station
Personal Weather Station
Location: Kewaunee, WI
Elevation: 617 ft
Nearby Weather Stations

Elev 617 ft 44.43 °N, 87.50 °W | Updated 3 seconds ago

Overcast
Overcast
39.1 °F
Feels Like 34 °F
N
6.9
Wind Variable Wind from WSW
Gusts 6.9 mph

Today
High -- | Low -- °F
--% Chance of Precip.
Yesterday
High -- | Low -- °F
Precip. -- in
7:25 AM 4:16 PM
Waxing Crescent, 37% visible
Pressure 29.90 in
Visibility 1.5 miles
Clouds Overcast 300 ft
Windchill 34 °F
Dew Point 39 °F
Humidity 98%
Rainfall 0.07 in
Snow Depth Not available.
UV 0 out of 12
Pollen .10 out of 12
Air Quality Not available.
Flu Activity Not available.
METAR KMTW 271356Z AUTO 19009KT 1 1/2SM BR OVC003 04/04 A2983 RMK AO2 RAE40 SLP124 P0000 T00440044

More Conditions Fewer Conditions

Pressure 29.90 in
Visibility 1.5 miles
Clouds Overcast 300 ft
Windchill 34 °F
Dew Point 39 °F
Humidity 98%
Rainfall 0.07 in
Snow Depth Not available.
UV 0 out of 12
Pollen .10 out of 12
Air Quality Not available.
Flu Activity Not available.
METAR KMTW 271356Z AUTO 19009KT 1 1/2SM BR OVC003 04/04 A2983 RMK AO2 RAE40 SLP124 P0000 T00440044

More Conditions Fewer Conditions

10-Day Weather Forecast

Almanac

Astronomy

Dec. 27, 2014 Rise Set
Actual Time
Civil Twilight
Nautical Twilight
Astronomical Twilight
Moon
Length of Visible Light
Length of Day
Tomorrow will be .
, % of the Moon is Illuminated

Today's Extremes

State Highs State Lows

Community

WunderPhotos

Upload Photos

1,780,909 photos uploaded!

WunderBlogs® & News

Nearby

Air Quality

  Air Quality AQ Index Pollutant
Not available.

Snow Depth

Station Depth Elevation

Earthquake Activity

City Distance Mag. Time & Date
Minimum magnitude displayed is 2.5.

Coastal Water Temperatures

Place Temperature

Nearby Weather Stations